sensor_id;sensor_type;location;lat;lon;timestamp;temperature;humidity
11991;DHT22;6055;52.522;13.446;2022-12-26T00:01:24;8.80;99.90
11991;DHT22;6055;52.522;13.446;2022-12-26T00:03:51;8.80;99.90
11991;DHT22;6055;52.522;13.446;2022-12-26T00:06:19;8.90;99.90
11991;DHT22;6055;52.522;13.446;2022-12-26T00:08:46;8.90;99.90
11991;DHT22;6055;52.522;13.446;2022-12-26T00:11:12;8.90;99.90
11991;DHT22;6055;52.522;13.446;2022-12-26T00:13:38;8.90;99.90
11991;DHT22;6055;52.522;13.446;2022-12-26T00:16:09;8.90;99.90
11991;DHT22;6055;52.522;13.446;2022-12-26T00:18:34;8.80;99.90
11991;DHT22;6055;52.522;13.446;2022-12-26T00:21:00;8.80;99.90
11991;DHT22;6055;52.522;13.446;2022-12-26T00:23:25;8.80;99.90
11991;DHT22;6055;52.522;13.446;2022-12-26T00:25:51;8.90;99.90
11991;DHT22;6055;52.522;13.446;2022-12-26T00:28:16;8.90;99.90
11991;DHT22;6055;52.522;13.446;2022-12-26T00:30:42;8.90;99.90
11991;DHT22;6055;52.522;13.446;2022-12-26T00:33:07;8.90;99.90
11991;DHT22;6055;52.522;13.446;2022-12-26T00:35:32;8.80;99.90
11991;DHT22;6055;52.522;13.446;2022-12-26T00:37:58;8.80;99.90
11991;DHT22;6055;52.522;13.446;2022-12-26T00:40:23;8.90;99.90
11991;DHT22;6055;52.522;13.446;2022-12-26T00:42:49;8.90;99.90
11991;DHT22;6055;52.522;13.446;2022-12-26T00:45:14;8.90;99.90
11991;DHT22;6055;52.522;13.446;2022-12-26T00:47:40;8.90;99.90
11991;DHT22;6055;52.522;13.446;2022-12-26T00:50:06;8.90;99.90
11991;DHT22;6055;52.522;13.446;2022-12-26T00:52:31;8.90;99.90
11991;DHT22;6055;52.522;13.446;2022-12-26T00:54:57;8.90;99.90
11991;DHT22;6055;52.522;13.446;2022-12-26T00:57:22;8.90;99.90
11991;DHT22;6055;52.522;13.446;2022-12-26T00:59:47;9.00;99.90
11991;DHT22;6055;52.522;13.446;2022-12-26T01:02:13;9.00;99.90
11991;DHT22;6055;52.522;13.446;2022-12-26T01:04:57;9.00;99.90
11991;DHT22;6055;52.522;13.446;2022-12-26T01:07:22;9.00;99.90
11991;DHT22;6055;52.522;13.446;2022-12-26T01:09:48;9.00;99.90
11991;DHT22;6055;52.522;13.446;2022-12-26T01:12:13;9.00;99.90
11991;DHT22;6055;52.522;13.446;2022-12-26T01:14:39;9.10;99.90
11991;DHT22;6055;52.522;13.446;2022-12-26T01:17:04;9.10;99.90
11991;DHT22;6055;52.522;13.446;2022-12-26T01:19:30;9.10;99.90
11991;DHT22;6055;52.522;13.446;2022-12-26T01:21:55;9.10;99.90
11991;DHT22;6055;52.522;13.446;2022-12-26T01:24:20;9.10;99.90
11991;DHT22;6055;52.522;13.446;2022-12-26T01:26:46;9.10;99.90
11991;DHT22;6055;52.522;13.446;2022-12-26T01:29:12;9.10;99.90
11991;DHT22;6055;52.522;13.446;2022-12-26T01:31:37;9.10;99.90
11991;DHT22;6055;52.522;13.446;2022-12-26T01:34:02;9.10;99.90
11991;DHT22;6055;52.522;13.446;2022-12-26T01:36:28;9.20;99.90
11991;DHT22;6055;52.522;13.446;2022-12-26T01:38:53;9.20;99.90
11991;DHT22;6055;52.522;13.446;2022-12-26T01:41:19;9.20;99.90
11991;DHT22;6055;52.522;13.446;2022-12-26T01:44:02;9.20;99.90
11991;DHT22;6055;52.522;13.446;2022-12-26T01:46:37;9.10;99.90
11991;DHT22;6055;52.522;13.446;2022-12-26T01:49:13;9.20;99.90
11991;DHT22;6055;52.522;13.446;2022-12-26T01:51:43;9.20;99.90
11991;DHT22;6055;52.522;13.446;2022-12-26T01:54:11;9.10;99.90
11991;DHT22;6055;52.522;13.446;2022-12-26T01:56:40;9.20;99.90
11991;DHT22;6055;52.522;13.446;2022-12-26T01:59:14;9.10;99.90
11991;DHT22;6055;52.522;13.446;2022-12-26T02:01:42;9.10;99.90
11991;DHT22;6055;52.522;13.446;2022-12-26T02:04:13;9.10;99.90
11991;DHT22;6055;52.522;13.446;2022-12-26T02:06:58;9.10;99.90
11991;DHT22;6055;52.522;13.446;2022-12-26T02:09:24;9.10;99.90
11991;DHT22;6055;52.522;13.446;2022-12-26T02:12:16;9.10;99.90
11991;DHT22;6055;52.522;13.446;2022-12-26T02:14:44;9.10;99.90
11991;DHT22;6055;52.522;13.446;2022-12-26T02:17:10;9.10;99.90
11991;DHT22;6055;52.522;13.446;2022-12-26T02:22:30;9.10;99.90
11991;DHT22;6055;52.522;13.446;2022-12-26T02:27:44;9.20;99.90
11991;DHT22;6055;52.522;13.446;2022-12-26T02:30:38;9.20;99.90
11991;DHT22;6055;52.522;13.446;2022-12-26T02:44:15;9.40;99.90
11991;DHT22;6055;52.522;13.446;2022-12-26T02:52:59;9.40;99.90
11991;DHT22;6055;52.522;13.446;2022-12-26T02:55:47;9.40;99.90
11991;DHT22;6055;52.522;13.446;2022-12-26T02:58:47;9.50;99.90
11991;DHT22;6055;52.522;13.446;2022-12-26T03:01:39;9.50;99.90
11991;DHT22;6055;52.522;13.446;2022-12-26T03:04:26;9.50;99.90
11991;DHT22;6055;52.522;13.446;2022-12-26T03:07:17;9.50;99.90
11991;DHT22;6055;52.522;13.446;2022-12-26T03:10:05;9.50;99.90
11991;DHT22;6055;52.522;13.446;2022-12-26T03:12:55;9.50;99.90
11991;DHT22;6055;52.522;13.446;2022-12-26T03:16:01;9.50;99.90
11991;DHT22;6055;52.522;13.446;2022-12-26T03:18:50;9.50;99.90
11991;DHT22;6055;52.522;13.446;2022-12-26T03:21:20;9.60;99.90
11991;DHT22;6055;52.522;13.446;2022-12-26T03:23:48;9.60;99.90
11991;DHT22;6055;52.522;13.446;2022-12-26T03:26:19;9.60;99.90
11991;DHT22;6055;52.522;13.446;2022-12-26T03:29:04;9.60;99.90
11991;DHT22;6055;52.522;13.446;2022-12-26T03:31:48;9.60;99.90
11991;DHT22;6055;52.522;13.446;2022-12-26T03:34:14;9.60;99.90
11991;DHT22;6055;52.522;13.446;2022-12-26T03:40:00;9.70;99.90
11991;DHT22;6055;52.522;13.446;2022-12-26T03:42:52;9.80;99.90
11991;DHT22;6055;52.522;13.446;2022-12-26T03:45:54;9.70;99.90
11991;DHT22;6055;52.522;13.446;2022-12-26T03:48:53;9.80;99.90
11991;DHT22;6055;52.522;13.446;2022-12-26T03:51:46;9.80;99.90
11991;DHT22;6055;52.522;13.446;2022-12-26T03:54:37;9.80;99.90
11991;DHT22;6055;52.522;13.446;2022-12-26T03:57:29;9.80;99.90
11991;DHT22;6055;52.522;13.446;2022-12-26T04:00:17;9.80;99.90
11991;DHT22;6055;52.522;13.446;2022-12-26T04:03:06;9.90;99.90
11991;DHT22;6055;52.522;13.446;2022-12-26T04:05:52;9.90;99.90
11991;DHT22;6055;52.522;13.446;2022-12-26T04:08:56;9.90;99.90
11991;DHT22;6055;52.522;13.446;2022-12-26T04:11:43;9.90;99.90
11991;DHT22;6055;52.522;13.446;2022-12-26T04:14:54;9.90;99.90
11991;DHT22;6055;52.522;13.446;2022-12-26T04:17:43;9.90;99.90
11991;DHT22;6055;52.522;13.446;2022-12-26T04:20:54;9.90;99.90
11991;DHT22;6055;52.522;13.446;2022-12-26T04:23:33;10.00;99.90
11991;DHT22;6055;52.522;13.446;2022-12-26T04:26:31;10.00;99.90
11991;DHT22;6055;52.522;13.446;2022-12-26T04:29:17;10.00;99.90
11991;DHT22;6055;52.522;13.446;2022-12-26T04:32:13;10.00;99.90
11991;DHT22;6055;52.522;13.446;2022-12-26T04:37:49;9.90;99.90
11991;DHT22;6055;52.522;13.446;2022-12-26T04:40:39;9.90;99.90
11991;DHT22;6055;52.522;13.446;2022-12-26T04:43:25;9.90;99.90
11991;DHT22;6055;52.522;13.446;2022-12-26T04:46:11;9.90;99.90
11991;DHT22;6055;52.522;13.446;2022-12-26T04:48:44;9.90;99.90
11991;DHT22;6055;52.522;13.446;2022-12-26T04:51:29;10.00;99.90
11991;DHT22;6055;52.522;13.446;2022-12-26T04:53:54;10.00;99.90
11991;DHT22;6055;52.522;13.446;2022-12-26T04:56:19;10.00;99.90
11991;DHT22;6055;52.522;13.446;2022-12-26T04:58:45;10.00;99.90
11991;DHT22;6055;52.522;13.446;2022-12-26T05:01:10;10.00;99.90
11991;DHT22;6055;52.522;13.446;2022-12-26T05:03:54;10.10;99.90
11991;DHT22;6055;52.522;13.446;2022-12-26T05:06:38;10.10;99.90
11991;DHT22;6055;52.522;13.446;2022-12-26T05:09:23;10.10;99.90
11991;DHT22;6055;52.522;13.446;2022-12-26T05:12:06;10.10;99.90
11991;DHT22;6055;52.522;13.446;2022-12-26T05:14:33;10.10;99.90
11991;DHT22;6055;52.522;13.446;2022-12-26T05:17:00;10.10;99.90
11991;DHT22;6055;52.522;13.446;2022-12-26T05:19:44;10.10;99.90
11991;DHT22;6055;52.522;13.446;2022-12-26T05:22:31;10.10;99.90
11991;DHT22;6055;52.522;13.446;2022-12-26T05:25:20;10.20;99.90
11991;DHT22;6055;52.522;13.446;2022-12-26T05:28:11;10.10;99.90
11991;DHT22;6055;52.522;13.446;2022-12-26T05:30:56;10.10;99.90
11991;DHT22;6055;52.522;13.446;2022-12-26T05:33:22;10.20;99.90
11991;DHT22;6055;52.522;13.446;2022-12-26T05:36:07;10.20;99.90
11991;DHT22;6055;52.522;13.446;2022-12-26T05:38:34;10.20;99.90
11991;DHT22;6055;52.522;13.446;2022-12-26T05:41:00;10.20;99.90
11991;DHT22;6055;52.522;13.446;2022-12-26T05:43:25;10.10;99.90
11991;DHT22;6055;52.522;13.446;2022-12-26T05:45:51;10.10;99.90
11991;DHT22;6055;52.522;13.446;2022-12-26T05:48:16;10.20;99.90
11991;DHT22;6055;52.522;13.446;2022-12-26T05:50:41;10.20;99.90
11991;DHT22;6055;52.522;13.446;2022-12-26T05:53:07;10.20;99.90
11991;DHT22;6055;52.522;13.446;2022-12-26T05:55:35;10.20;99.90
11991;DHT22;6055;52.522;13.446;2022-12-26T05:58:01;10.20;99.90
11991;DHT22;6055;52.522;13.446;2022-12-26T06:00:26;10.20;99.90
11991;DHT22;6055;52.522;13.446;2022-12-26T06:02:52;10.20;99.90
11991;DHT22;6055;52.522;13.446;2022-12-26T06:05:18;10.20;99.90
11991;DHT22;6055;52.522;13.446;2022-12-26T06:07:44;10.20;99.90
11991;DHT22;6055;52.522;13.446;2022-12-26T06:10:09;10.20;99.90
11991;DHT22;6055;52.522;13.446;2022-12-26T06:12:35;10.20;99.90
11991;DHT22;6055;52.522;13.446;2022-12-26T06:15:01;10.20;99.90
11991;DHT22;6055;52.522;13.446;2022-12-26T06:17:26;10.20;99.90
11991;DHT22;6055;52.522;13.446;2022-12-26T06:19:52;10.30;99.90
11991;DHT22;6055;52.522;13.446;2022-12-26T06:22:17;10.30;99.90
11991;DHT22;6055;52.522;13.446;2022-12-26T06:24:43;10.30;99.90
11991;DHT22;6055;52.522;13.446;2022-12-26T06:27:08;10.30;99.90
11991;DHT22;6055;52.522;13.446;2022-12-26T06:29:34;10.30;99.90
11991;DHT22;6055;52.522;13.446;2022-12-26T06:31:59;10.30;99.90
11991;DHT22;6055;52.522;13.446;2022-12-26T06:34:25;10.30;99.90
11991;DHT22;6055;52.522;13.446;2022-12-26T06:36:52;10.30;99.90
11991;DHT22;6055;52.522;13.446;2022-12-26T06:39:18;10.30;99.90
11991;DHT22;6055;52.522;13.446;2022-12-26T06:41:43;10.30;99.90
11991;DHT22;6055;52.522;13.446;2022-12-26T06:44:09;10.30;99.90
11991;DHT22;6055;52.522;13.446;2022-12-26T06:46:35;10.30;99.90
11991;DHT22;6055;52.522;13.446;2022-12-26T06:49:00;10.40;99.90
11991;DHT22;6055;52.522;13.446;2022-12-26T06:51:26;10.40;99.90
11991;DHT22;6055;52.522;13.446;2022-12-26T06:53:53;10.30;99.90
11991;DHT22;6055;52.522;13.446;2022-12-26T06:56:21;10.40;99.90
11991;DHT22;6055;52.522;13.446;2022-12-26T06:58:54;10.40;99.90
11991;DHT22;6055;52.522;13.446;2022-12-26T07:01:21;10.40;99.90
11991;DHT22;6055;52.522;13.446;2022-12-26T07:03:48;10.40;99.90
11991;DHT22;6055;52.522;13.446;2022-12-26T07:06:36;10.40;99.90
11991;DHT22;6055;52.522;13.446;2022-12-26T07:09:05;10.40;99.90
11991;DHT22;6055;52.522;13.446;2022-12-26T07:11:34;10.40;99.90
11991;DHT22;6055;52.522;13.446;2022-12-26T07:14:00;10.40;99.90
11991;DHT22;6055;52.522;13.446;2022-12-26T07:16:26;10.40;99.90
11991;DHT22;6055;52.522;13.446;2022-12-26T07:18:55;10.40;99.90
11991;DHT22;6055;52.522;13.446;2022-12-26T07:21:21;10.30;99.90
11991;DHT22;6055;52.522;13.446;2022-12-26T07:23:47;10.30;99.90
11991;DHT22;6055;52.522;13.446;2022-12-26T07:26:13;10.30;99.90
11991;DHT22;6055;52.522;13.446;2022-12-26T07:28:38;10.30;99.90
11991;DHT22;6055;52.522;13.446;2022-12-26T07:31:04;10.30;99.90
11991;DHT22;6055;52.522;13.446;2022-12-26T07:33:30;10.30;99.90
11991;DHT22;6055;52.522;13.446;2022-12-26T07:36:00;10.30;99.90
11991;DHT22;6055;52.522;13.446;2022-12-26T07:38:25;10.30;99.90
11991;DHT22;6055;52.522;13.446;2022-12-26T07:40:54;10.30;99.90
11991;DHT22;6055;52.522;13.446;2022-12-26T07:43:20;10.20;99.90
11991;DHT22;6055;52.522;13.446;2022-12-26T07:45:46;10.30;99.90
11991;DHT22;6055;52.522;13.446;2022-12-26T07:48:12;10.20;99.90
11991;DHT22;6055;52.522;13.446;2022-12-26T07:50:37;10.20;99.90
11991;DHT22;6055;52.522;13.446;2022-12-26T07:53:03;10.20;99.90
11991;DHT22;6055;52.522;13.446;2022-12-26T07:55:28;10.20;99.90
11991;DHT22;6055;52.522;13.446;2022-12-26T07:57:54;10.20;99.90
11991;DHT22;6055;52.522;13.446;2022-12-26T08:00:21;10.20;99.90
11991;DHT22;6055;52.522;13.446;2022-12-26T08:02:47;10.20;99.90
11991;DHT22;6055;52.522;13.446;2022-12-26T08:05:13;10.20;99.90
11991;DHT22;6055;52.522;13.446;2022-12-26T08:07:39;10.20;99.90
11991;DHT22;6055;52.522;13.446;2022-12-26T08:10:05;10.20;99.90
11991;DHT22;6055;52.522;13.446;2022-12-26T08:12:31;10.20;99.90
11991;DHT22;6055;52.522;13.446;2022-12-26T08:14:57;10.20;99.90
11991;DHT22;6055;52.522;13.446;2022-12-26T08:17:22;10.20;99.90
11991;DHT22;6055;52.522;13.446;2022-12-26T08:19:48;10.20;99.90
11991;DHT22;6055;52.522;13.446;2022-12-26T08:22:13;10.20;99.90
11991;DHT22;6055;52.522;13.446;2022-12-26T08:24:39;10.20;99.90
11991;DHT22;6055;52.522;13.446;2022-12-26T08:27:04;10.20;99.90
11991;DHT22;6055;52.522;13.446;2022-12-26T08:29:30;10.20;99.90
11991;DHT22;6055;52.522;13.446;2022-12-26T08:31:55;10.20;99.90
11991;DHT22;6055;52.522;13.446;2022-12-26T08:34:21;10.20;99.90
11991;DHT22;6055;52.522;13.446;2022-12-26T08:36:49;10.20;99.90
11991;DHT22;6055;52.522;13.446;2022-12-26T08:39:16;10.20;99.90
11991;DHT22;6055;52.522;13.446;2022-12-26T08:41:41;10.20;99.90
11991;DHT22;6055;52.522;13.446;2022-12-26T08:44:08;10.30;99.90
11991;DHT22;6055;52.522;13.446;2022-12-26T08:46:35;10.30;99.90
11991;DHT22;6055;52.522;13.446;2022-12-26T08:49:01;10.30;99.90
11991;DHT22;6055;52.522;13.446;2022-12-26T08:51:26;10.40;99.90
11991;DHT22;6055;52.522;13.446;2022-12-26T08:53:53;10.40;99.90
11991;DHT22;6055;52.522;13.446;2022-12-26T08:56:21;10.40;99.90
11991;DHT22;6055;52.522;13.446;2022-12-26T08:58:47;10.40;99.90
11991;DHT22;6055;52.522;13.446;2022-12-26T09:01:18;10.40;99.90
11991;DHT22;6055;52.522;13.446;2022-12-26T09:03:45;10.40;99.90
11991;DHT22;6055;52.522;13.446;2022-12-26T09:06:13;10.40;99.90
11991;DHT22;6055;52.522;13.446;2022-12-26T09:08:40;10.40;99.90
11991;DHT22;6055;52.522;13.446;2022-12-26T09:11:09;10.50;99.90
11991;DHT22;6055;52.522;13.446;2022-12-26T09:13:35;10.50;99.90
11991;DHT22;6055;52.522;13.446;2022-12-26T09:16:06;10.50;99.90
11991;DHT22;6055;52.522;13.446;2022-12-26T09:18:32;10.50;99.90
11991;DHT22;6055;52.522;13.446;2022-12-26T09:21:02;10.50;99.90
11991;DHT22;6055;52.522;13.446;2022-12-26T09:23:28;10.50;99.90
11991;DHT22;6055;52.522;13.446;2022-12-26T09:25:54;10.60;99.90
11991;DHT22;6055;52.522;13.446;2022-12-26T09:28:19;10.60;99.90
11991;DHT22;6055;52.522;13.446;2022-12-26T09:30:45;10.60;99.90
11991;DHT22;6055;52.522;13.446;2022-12-26T09:33:10;10.60;99.90
11991;DHT22;6055;52.522;13.446;2022-12-26T09:35:39;10.60;99.90
11991;DHT22;6055;52.522;13.446;2022-12-26T09:38:05;10.60;99.90
11991;DHT22;6055;52.522;13.446;2022-12-26T09:40:42;10.70;99.90
11991;DHT22;6055;52.522;13.446;2022-12-26T09:43:22;10.70;99.90
11991;DHT22;6055;52.522;13.446;2022-12-26T09:46:00;10.70;99.90
11991;DHT22;6055;52.522;13.446;2022-12-26T09:48:46;10.70;99.90
11991;DHT22;6055;52.522;13.446;2022-12-26T09:51:15;10.80;99.90
11991;DHT22;6055;52.522;13.446;2022-12-26T09:53:41;10.80;99.90
11991;DHT22;6055;52.522;13.446;2022-12-26T09:56:13;10.80;99.90
11991;DHT22;6055;52.522;13.446;2022-12-26T10:01:26;10.80;99.90
11991;DHT22;6055;52.522;13.446;2022-12-26T10:03:57;10.80;99.90
11991;DHT22;6055;52.522;13.446;2022-12-26T10:06:30;10.80;99.90
11991;DHT22;6055;52.522;13.446;2022-12-26T10:09:34;10.80;99.90
11991;DHT22;6055;52.522;13.446;2022-12-26T10:15:05;10.90;99.90
11991;DHT22;6055;52.522;13.446;2022-12-26T10:17:41;10.90;99.90
11991;DHT22;6055;52.522;13.446;2022-12-26T10:20:45;10.90;99.90
11991;DHT22;6055;52.522;13.446;2022-12-26T10:23:40;11.00;99.90
11991;DHT22;6055;52.522;13.446;2022-12-26T10:26:17;10.90;99.90
11991;DHT22;6055;52.522;13.446;2022-12-26T10:28:53;11.00;99.90
11991;DHT22;6055;52.522;13.446;2022-12-26T10:34:12;11.00;99.90
11991;DHT22;6055;52.522;13.446;2022-12-26T10:36:45;11.00;99.90
11991;DHT22;6055;52.522;13.446;2022-12-26T10:41:46;10.90;99.90
11991;DHT22;6055;52.522;13.446;2022-12-26T10:44:14;10.90;99.90
11991;DHT22;6055;52.522;13.446;2022-12-26T10:47:12;10.80;99.90
11991;DHT22;6055;52.522;13.446;2022-12-26T10:49:43;10.90;99.90
11991;DHT22;6055;52.522;13.446;2022-12-26T10:52:09;10.80;99.90
11991;DHT22;6055;52.522;13.446;2022-12-26T10:54:36;10.80;99.90
11991;DHT22;6055;52.522;13.446;2022-12-26T10:57:02;10.80;99.90
11991;DHT22;6055;52.522;13.446;2022-12-26T10:59:48;10.80;99.90
11991;DHT22;6055;52.522;13.446;2022-12-26T11:05:04;10.80;99.90
11991;DHT22;6055;52.522;13.446;2022-12-26T11:07:43;10.70;99.90
11991;DHT22;6055;52.522;13.446;2022-12-26T11:10:20;10.80;99.90
11991;DHT22;6055;52.522;13.446;2022-12-26T11:12:49;10.70;99.90
11991;DHT22;6055;52.522;13.446;2022-12-26T11:15:33;10.70;99.90
11991;DHT22;6055;52.522;13.446;2022-12-26T11:18:31;10.70;99.90
11991;DHT22;6055;52.522;13.446;2022-12-26T11:21:11;10.70;99.90
11991;DHT22;6055;52.522;13.446;2022-12-26T11:23:38;10.60;99.90
11991;DHT22;6055;52.522;13.446;2022-12-26T11:26:23;10.60;99.90
11991;DHT22;6055;52.522;13.446;2022-12-26T11:31:32;10.60;99.90
11991;DHT22;6055;52.522;13.446;2022-12-26T11:33:59;10.60;99.90
11991;DHT22;6055;52.522;13.446;2022-12-26T11:36:27;10.60;99.90
11991;DHT22;6055;52.522;13.446;2022-12-26T11:38:59;10.50;99.90
11991;DHT22;6055;52.522;13.446;2022-12-26T11:46:39;10.50;99.90
11991;DHT22;6055;52.522;13.446;2022-12-26T11:49:06;10.50;99.90
11991;DHT22;6055;52.522;13.446;2022-12-26T11:51:42;10.50;99.90
11991;DHT22;6055;52.522;13.446;2022-12-26T11:54:20;10.50;99.90
11991;DHT22;6055;52.522;13.446;2022-12-26T11:56:46;10.60;99.90
11991;DHT22;6055;52.522;13.446;2022-12-26T11:59:19;10.50;99.90
11991;DHT22;6055;52.522;13.446;2022-12-26T12:01:45;10.60;99.90
11991;DHT22;6055;52.522;13.446;2022-12-26T12:04:11;10.70;99.90
11991;DHT22;6055;52.522;13.446;2022-12-26T12:06:54;10.70;99.90
11991;DHT22;6055;52.522;13.446;2022-12-26T12:09:35;10.70;99.90
11991;DHT22;6055;52.522;13.446;2022-12-26T12:14:54;10.70;99.90
11991;DHT22;6055;52.522;13.446;2022-12-26T12:17:32;10.70;99.90
11991;DHT22;6055;52.522;13.446;2022-12-26T12:20:03;10.60;99.90
11991;DHT22;6055;52.522;13.446;2022-12-26T12:25:26;10.60;99.90
11991;DHT22;6055;52.522;13.446;2022-12-26T12:31:02;10.50;99.90
11991;DHT22;6055;52.522;13.446;2022-12-26T12:33:57;10.50;99.90
11991;DHT22;6055;52.522;13.446;2022-12-26T12:36:53;10.50;99.90
11991;DHT22;6055;52.522;13.446;2022-12-26T12:39:51;10.40;99.90
11991;DHT22;6055;52.522;13.446;2022-12-26T12:45:33;10.50;99.90
11991;DHT22;6055;52.522;13.446;2022-12-26T12:48:35;10.50;99.90
11991;DHT22;6055;52.522;13.446;2022-12-26T12:54:07;10.50;99.90
11991;DHT22;6055;52.522;13.446;2022-12-26T12:57:02;10.50;99.90
11991;DHT22;6055;52.522;13.446;2022-12-26T13:01:59;10.60;99.90
11991;DHT22;6055;52.522;13.446;2022-12-26T13:04:38;10.60;99.90
11991;DHT22;6055;52.522;13.446;2022-12-26T13:07:14;10.60;99.90
11991;DHT22;6055;52.522;13.446;2022-12-26T13:09:50;10.60;99.90
11991;DHT22;6055;52.522;13.446;2022-12-26T13:12:21;10.60;99.90
11991;DHT22;6055;52.522;13.446;2022-12-26T13:14:51;10.60;99.90
11991;DHT22;6055;52.522;13.446;2022-12-26T13:17:32;10.60;99.90
11991;DHT22;6055;52.522;13.446;2022-12-26T13:20:10;10.60;99.90
11991;DHT22;6055;52.522;13.446;2022-12-26T13:22:40;10.60;99.90
11991;DHT22;6055;52.522;13.446;2022-12-26T13:25:34;10.60;99.90
11991;DHT22;6055;52.522;13.446;2022-12-26T13:28:03;10.60;99.90
11991;DHT22;6055;52.522;13.446;2022-12-26T13:30:34;10.50;99.90
11991;DHT22;6055;52.522;13.446;2022-12-26T13:33:00;10.50;99.90
11991;DHT22;6055;52.522;13.446;2022-12-26T13:35:56;10.50;99.90
11991;DHT22;6055;52.522;13.446;2022-12-26T13:38:23;10.50;99.90
11991;DHT22;6055;52.522;13.446;2022-12-26T13:41:01;10.50;99.90
11991;DHT22;6055;52.522;13.446;2022-12-26T13:49:37;10.70;99.90
11991;DHT22;6055;52.522;13.446;2022-12-26T13:57:37;10.60;99.90
11991;DHT22;6055;52.522;13.446;2022-12-26T14:00:21;10.50;99.90
11991;DHT22;6055;52.522;13.446;2022-12-26T14:06:13;10.50;99.90
11991;DHT22;6055;52.522;13.446;2022-12-26T14:11:36;10.40;99.90
11991;DHT22;6055;52.522;13.446;2022-12-26T14:14:29;10.40;99.90
11991;DHT22;6055;52.522;13.446;2022-12-26T14:23:17;10.50;99.90
11991;DHT22;6055;52.522;13.446;2022-12-26T14:26:02;10.50;99.90
11991;DHT22;6055;52.522;13.446;2022-12-26T14:28:59;10.40;99.90
11991;DHT22;6055;52.522;13.446;2022-12-26T14:31:38;10.40;99.90
11991;DHT22;6055;52.522;13.446;2022-12-26T14:35:18;10.30;99.90
11991;DHT22;6055;52.522;13.446;2022-12-26T14:40:28;10.20;99.90
11991;DHT22;6055;52.522;13.446;2022-12-26T14:45:47;10.20;99.90
11991;DHT22;6055;52.522;13.446;2022-12-26T14:50:51;10.10;99.90
11991;DHT22;6055;52.522;13.446;2022-12-26T14:58:40;10.20;99.90
11991;DHT22;6055;52.522;13.446;2022-12-26T15:15:21;10.20;99.90
11991;DHT22;6055;52.522;13.446;2022-12-26T15:21:06;10.20;99.90
11991;DHT22;6055;52.522;13.446;2022-12-26T15:24:05;10.20;99.90
11991;DHT22;6055;52.522;13.446;2022-12-26T15:26:41;10.30;99.90
11991;DHT22;6055;52.522;13.446;2022-12-26T15:29:38;10.30;99.90
11991;DHT22;6055;52.522;13.446;2022-12-26T15:32:12;10.20;99.90
11991;DHT22;6055;52.522;13.446;2022-12-26T15:35:09;10.20;99.90
11991;DHT22;6055;52.522;13.446;2022-12-26T15:38:12;10.20;99.90
11991;DHT22;6055;52.522;13.446;2022-12-26T15:41:17;10.10;99.90
11991;DHT22;6055;52.522;13.446;2022-12-26T15:44:06;10.10;99.90
11991;DHT22;6055;52.522;13.446;2022-12-26T15:46:36;10.00;99.90
11991;DHT22;6055;52.522;13.446;2022-12-26T15:49:29;9.90;99.90
11991;DHT22;6055;52.522;13.446;2022-12-26T15:52:23;9.90;99.90
11991;DHT22;6055;52.522;13.446;2022-12-26T15:57:53;9.80;99.90
11991;DHT22;6055;52.522;13.446;2022-12-26T16:00:22;9.80;99.90
11991;DHT22;6055;52.522;13.446;2022-12-26T16:05:53;9.70;99.90
11991;DHT22;6055;52.522;13.446;2022-12-26T16:11:29;9.60;99.90
11991;DHT22;6055;52.522;13.446;2022-12-26T16:14:00;9.60;99.90
11991;DHT22;6055;52.522;13.446;2022-12-26T16:16:32;9.60;99.90
11991;DHT22;6055;52.522;13.446;2022-12-26T16:19:14;9.60;99.90
11991;DHT22;6055;52.522;13.446;2022-12-26T16:21:40;9.60;99.90
11991;DHT22;6055;52.522;13.446;2022-12-26T16:24:25;9.60;99.90
11991;DHT22;6055;52.522;13.446;2022-12-26T16:26:51;9.60;99.90
11991;DHT22;6055;52.522;13.446;2022-12-26T16:29:19;9.60;99.90
11991;DHT22;6055;52.522;13.446;2022-12-26T16:31:45;9.60;99.90
11991;DHT22;6055;52.522;13.446;2022-12-26T16:34:19;9.60;99.90
11991;DHT22;6055;52.522;13.446;2022-12-26T16:36:48;9.60;99.90
11991;DHT22;6055;52.522;13.446;2022-12-26T16:39:21;9.60;99.90
11991;DHT22;6055;52.522;13.446;2022-12-26T16:41:57;9.60;99.90
11991;DHT22;6055;52.522;13.446;2022-12-26T16:44:35;9.60;99.90
11991;DHT22;6055;52.522;13.446;2022-12-26T16:47:05;9.70;99.90
11991;DHT22;6055;52.522;13.446;2022-12-26T16:49:32;9.70;99.90
11991;DHT22;6055;52.522;13.446;2022-12-26T16:51:58;9.70;99.90
11991;DHT22;6055;52.522;13.446;2022-12-26T16:57:06;9.70;99.90
11991;DHT22;6055;52.522;13.446;2022-12-26T16:59:40;9.70;99.90
11991;DHT22;6055;52.522;13.446;2022-12-26T17:02:17;9.80;99.90
11991;DHT22;6055;52.522;13.446;2022-12-26T17:04:53;9.70;99.90
11991;DHT22;6055;52.522;13.446;2022-12-26T17:07:20;9.80;99.90
11991;DHT22;6055;52.522;13.446;2022-12-26T17:09:49;9.80;99.90
11991;DHT22;6055;52.522;13.446;2022-12-26T17:12:23;9.80;99.90
11991;DHT22;6055;52.522;13.446;2022-12-26T17:14:49;9.90;99.90
11991;DHT22;6055;52.522;13.446;2022-12-26T17:19:54;10.00;99.90
11991;DHT22;6055;52.522;13.446;2022-12-26T17:22:35;10.10;99.90
11991;DHT22;6055;52.522;13.446;2022-12-26T17:27:45;10.10;99.90
11991;DHT22;6055;52.522;13.446;2022-12-26T17:30:31;10.10;99.90
11991;DHT22;6055;52.522;13.446;2022-12-26T17:33:17;10.10;99.90
11991;DHT22;6055;52.522;13.446;2022-12-26T17:35:48;10.00;99.90
11991;DHT22;6055;52.522;13.446;2022-12-26T17:38:18;10.00;99.90
11991;DHT22;6055;52.522;13.446;2022-12-26T17:40:46;10.00;99.90
11991;DHT22;6055;52.522;13.446;2022-12-26T17:45:39;9.90;99.90
11991;DHT22;6055;52.522;13.446;2022-12-26T17:48:05;9.90;99.90
11991;DHT22;6055;52.522;13.446;2022-12-26T17:50:34;9.80;99.90
11991;DHT22;6055;52.522;13.446;2022-12-26T17:55:45;9.80;99.90
11991;DHT22;6055;52.522;13.446;2022-12-26T17:58:12;9.70;99.90
11991;DHT22;6055;52.522;13.446;2022-12-26T18:00:38;9.70;99.90
11991;DHT22;6055;52.522;13.446;2022-12-26T18:03:03;9.60;99.90
11991;DHT22;6055;52.522;13.446;2022-12-26T18:05:29;9.60;99.90
11991;DHT22;6055;52.522;13.446;2022-12-26T18:07:55;9.60;99.90
11991;DHT22;6055;52.522;13.446;2022-12-26T18:10:26;9.60;99.90
11991;DHT22;6055;52.522;13.446;2022-12-26T18:12:53;9.60;99.90
11991;DHT22;6055;52.522;13.446;2022-12-26T18:15:19;9.50;99.90
11991;DHT22;6055;52.522;13.446;2022-12-26T18:17:47;9.50;99.90
11991;DHT22;6055;52.522;13.446;2022-12-26T18:20:27;9.50;99.90
11991;DHT22;6055;52.522;13.446;2022-12-26T18:22:54;9.50;99.90
11991;DHT22;6055;52.522;13.446;2022-12-26T18:25:22;9.50;99.90
11991;DHT22;6055;52.522;13.446;2022-12-26T18:27:48;9.50;99.90
11991;DHT22;6055;52.522;13.446;2022-12-26T18:30:16;9.50;99.90
11991;DHT22;6055;52.522;13.446;2022-12-26T18:32:42;9.40;99.90
11991;DHT22;6055;52.522;13.446;2022-12-26T18:35:08;9.40;99.90
11991;DHT22;6055;52.522;13.446;2022-12-26T18:37:35;9.30;99.90
11991;DHT22;6055;52.522;13.446;2022-12-26T18:40:00;9.30;99.90
11991;DHT22;6055;52.522;13.446;2022-12-26T18:42:26;9.30;99.90